Time;durP1;ratioP1;P1;durP2;ratioP2;P2;SDS_P1;SDS_P2;PMS_P1;PMS_P2;Temp;Humidity;BMP_temperature;BMP_pressure;BME280_temperature;BME280_humidity;BME280_pressure;Samples;Min_cycle;Max_cycle;Signal;HPM_P1;HPM_P2
2021/03/17 00:00:56;;;;;;;15.17;10.90;;;7.20;74.40;;;;;;5048786;28;21175;-40
2021/03/17 00:03:23;;;;;;;15.10;9.30;;;7.20;74.50;;;;;;5046576;28;20530;-40
2021/03/17 00:05:50;;;;;;;17.80;10.90;;;7.20;74.50;;;;;;5048589;28;20451;-40
2021/03/17 00:08:18;;;;;;;13.43;10.13;;;7.20;74.60;;;;;;5048434;28;20497;-40
2021/03/17 00:10:49;;;;;;;18.43;10.37;;;7.20;74.60;;;;;;5046773;28;20554;-40
2021/03/17 00:13:18;;;;;;;15.20;10.40;;;7.20;74.70;;;;;;5049332;28;20584;-40
2021/03/17 00:15:45;;;;;;;16.00;10.97;;;7.20;74.80;;;;;;5044628;28;20503;-40
2021/03/17 00:18:13;;;;;;;14.87;10.50;;;7.20;74.70;;;;;;5046571;28;20851;-40
2021/03/17 00:20:41;;;;;;;15.13;10.87;;;7.20;74.80;;;;;;5049038;28;20483;-40
2021/03/17 00:23:08;;;;;;;16.53;12.27;;;7.20;74.70;;;;;;5049435;28;20542;-40
2021/03/17 00:25:40;;;;;;;18.77;11.47;;;7.20;74.70;;;;;;5043259;28;20498;-40
2021/03/17 00:28:11;;;;;;;16.50;11.23;;;7.20;74.90;;;;;;5046433;28;20485;-40
2021/03/17 00:30:40;;;;;;;18.20;12.30;;;7.20;75.10;;;;;;5037167;28;20495;-40
2021/03/17 00:33:13;;;;;;;17.33;12.40;;;7.20;75.30;;;;;;5045289;28;20881;-40
2021/03/17 00:35:40;;;;;;;17.70;11.20;;;7.20;75.40;;;;;;5047347;28;20821;-40
2021/03/17 00:38:08;;;;;;;18.20;12.13;;;7.20;75.60;;;;;;5046087;28;20463;-40
2021/03/17 00:40:36;;;;;;;16.77;11.23;;;7.20;75.70;;;;;;5047684;28;20466;-40
2021/03/17 00:43:03;;;;;;;16.77;11.57;;;7.20;76.00;;;;;;5047511;28;20459;-40
2021/03/17 00:45:29;;;;;;;17.37;10.93;;;7.20;76.10;;;;;;5044767;28;20487;-40
2021/03/17 00:47:56;;;;;;;16.77;10.60;;;7.20;75.70;;;;;;5045767;28;21062;-40
2021/03/17 00:50:24;;;;;;;17.27;10.20;;;7.20;75.70;;;;;;5061259;28;20447;-40
2021/03/17 00:52:53;;;;;;;15.90;11.03;;;7.20;75.80;;;;;;5045226;28;20458;-40
2021/03/17 00:55:20;;;;;;;18.47;10.77;;;7.20;76.00;;;;;;5046444;28;21058;-40
2021/03/17 00:57:47;;;;;;;16.47;10.70;;;7.20;75.80;;;;;;5047726;28;20454;-40
2021/03/17 01:00:14;;;;;;;13.57;9.47;;;7.20;76.10;;;;;;5040934;28;20462;-40
2021/03/17 01:02:41;;;;;;;14.00;8.20;;;7.20;76.20;;;;;;5046898;28;20469;-40
2021/03/17 01:05:09;;;;;;;14.70;9.47;;;7.20;76.20;;;;;;5046708;28;20486;-40
2021/03/17 01:07:36;;;;;;;15.53;10.30;;;7.20;76.40;;;;;;5046611;28;20463;-40
2021/03/17 01:10:09;;;;;;;15.17;10.07;;;7.20;76.70;;;;;;5046609;28;21042;-40
2021/03/17 01:12:35;;;;;;;11.83;8.70;;;7.20;76.70;;;;;;5046745;28;20458;-40
2021/03/17 01:15:03;;;;;;;14.00;9.10;;;7.10;76.80;;;;;;5059108;28;20569;-40
2021/03/17 01:17:30;;;;;;;16.13;10.60;;;7.10;76.90;;;;;;5044423;28;20498;-40
2021/03/17 01:19:56;;;;;;;16.60;9.93;;;7.10;76.70;;;;;;5045624;28;20951;-40
2021/03/17 01:22:23;;;;;;;15.07;9.63;;;7.20;76.90;;;;;;5061530;28;20597;-40
2021/03/17 01:24:50;;;;;;;13.13;9.47;;;7.10;77.00;;;;;;5057683;28;20490;-40
2021/03/17 01:27:16;;;;;;;12.87;9.70;;;7.10;77.10;;;;;;5045674;28;20466;-40
2021/03/17 01:29:43;;;;;;;15.17;9.63;;;7.10;77.30;;;;;;5061460;28;20881;-40
2021/03/17 01:32:09;;;;;;;12.30;9.13;;;7.20;77.30;;;;;;5042759;28;20450;-40
2021/03/17 01:34:36;;;;;;;12.97;9.10;;;7.20;77.30;;;;;;5046236;28;20466;-40
2021/03/17 01:37:02;;;;;;;14.93;9.00;;;7.10;77.50;;;;;;5047472;28;20465;-40
2021/03/17 01:39:28;;;;;;;14.13;8.80;;;7.10;77.60;;;;;;5047680;28;20509;-40
2021/03/17 01:41:55;;;;;;;13.63;9.00;;;7.10;77.80;;;;;;5045606;28;20474;-40
2021/03/17 01:44:21;;;;;;;15.93;9.80;;;7.10;78.10;;;;;;5040871;28;20478;-40
2021/03/17 01:46:48;;;;;;;13.07;9.87;;;7.10;78.30;;;;;;5060915;28;20504;-40
2021/03/17 01:49:14;;;;;;;11.93;8.57;;;7.10;78.40;;;;;;5028069;28;20810;-40
2021/03/17 01:51:41;;;;;;;13.37;8.50;;;7.10;78.50;;;;;;5047453;28;20457;-40
2021/03/17 01:54:09;;;;;;;13.73;8.53;;;7.10;78.80;;;;;;5044803;28;20499;-40
2021/03/17 01:56:36;;;;;;;15.90;10.03;;;7.10;78.80;;;;;;5045272;28;20465;-40
2021/03/17 01:59:02;;;;;;;14.37;8.57;;;7.00;78.90;;;;;;5045601;28;20466;-40
2021/03/17 02:01:29;;;;;;;15.33;9.83;;;7.00;79.10;;;;;;5047746;28;20462;-40
2021/03/17 02:03:56;;;;;;;14.50;10.00;;;7.00;79.40;;;;;;5061639;28;20490;-40
2021/03/17 02:06:23;;;;;;;13.90;9.67;;;7.00;80.00;;;;;;5042039;28;20454;-40
2021/03/17 02:08:49;;;;;;;12.87;8.23;;;7.00;79.90;;;;;;5046499;28;20446;-39
2021/03/17 02:11:16;;;;;;;14.87;10.30;;;7.00;80.20;;;;;;5045694;28;20463;-40
2021/03/17 02:13:52;;;;;;;14.23;9.40;;;7.00;80.40;;;;;;5039841;28;20446;-40
2021/03/17 02:16:39;;;;;;;13.37;8.87;;;6.90;80.50;;;;;;5047399;28;20478;-40
2021/03/17 02:19:09;;;;;;;12.33;7.67;;;6.90;80.50;;;;;;5046521;28;20470;-40
2021/03/17 02:22:06;;;;;;;13.20;8.23;;;6.90;80.60;;;;;;5045553;28;20466;-40
2021/03/17 02:25:01;;;;;;;12.47;8.00;;;6.90;80.60;;;;;;5045028;28;20487;-40
2021/03/17 02:28:09;;;;;;;14.33;8.97;;;6.90;80.60;;;;;;5045458;28;20649;-40
2021/03/17 02:31:12;;;;;;;12.10;8.40;;;6.90;80.50;;;;;;5046746;28;20573;-40
2021/03/17 02:33:55;;;;;;;12.43;8.90;;;6.80;80.60;;;;;;5060257;28;20461;-40
2021/03/17 02:36:34;;;;;;;13.37;9.50;;;6.70;80.70;;;;;;5046910;28;20541;-39
2021/03/17 02:39:06;;;;;;;13.73;9.10;;;6.70;80.80;;;;;;5046573;28;20529;-40
2021/03/17 02:41:38;;;;;;;13.03;9.13;;;6.70;81.30;;;;;;5046769;28;20816;-39
2021/03/17 02:44:09;;;;;;;15.33;10.00;;;6.70;81.30;;;;;;5060523;28;20539;-40
2021/03/17 02:46:39;;;;;;;14.67;9.40;;;6.70;81.30;;;;;;5049810;28;20451;-40
2021/03/17 02:49:10;;;;;;;14.50;9.57;;;6.60;81.10;;;;;;5047758;28;20878;-40
2021/03/17 02:51:58;;;;;;;17.00;10.60;;;6.60;81.20;;;;;;5045890;28;21210;-40
2021/03/17 02:54:26;;;;;;;11.83;8.73;;;6.60;81.50;;;;;;5045173;28;20466;-40
2021/03/17 02:57:08;;;;;;;14.00;9.10;;;6.60;81.60;;;;;;5047678;28;20460;-40
2021/03/17 02:59:36;;;;;;;14.83;10.00;;;6.50;81.50;;;;;;5050431;28;20470;-40
2021/03/17 03:02:04;;;;;;;16.53;10.70;;;6.50;81.70;;;;;;5051308;28;20458;-40
2021/03/17 03:04:32;;;;;;;15.80;10.23;;;6.50;81.70;;;;;;5042994;28;20489;-40
2021/03/17 03:07:00;;;;;;;17.23;11.13;;;6.50;82.00;;;;;;5051912;28;20884;-40
2021/03/17 03:09:27;;;;;;;14.73;9.50;;;6.50;82.10;;;;;;5050454;28;20490;-39
2021/03/17 03:11:55;;;;;;;17.90;10.20;;;6.50;82.10;;;;;;5065551;28;20533;-40
2021/03/17 03:14:23;;;;;;;16.90;10.77;;;6.50;82.20;;;;;;5045198;28;20972;-40
2021/03/17 03:16:56;;;;;;;16.67;10.97;;;6.50;82.10;;;;;;5048870;28;20500;-40
2021/03/17 03:19:27;;;;;;;15.80;10.37;;;6.60;82.10;;;;;;5047682;28;20461;-40
2021/03/17 03:21:55;;;;;;;17.47;11.80;;;6.60;82.20;;;;;;5049963;28;20459;-40
2021/03/17 03:24:23;;;;;;;15.37;10.47;;;6.60;82.50;;;;;;5047306;28;20482;-40
2021/03/17 03:27:01;;;;;;;13.83;9.93;;;6.60;82.30;;;;;;5049786;28;20500;-41
2021/03/17 03:29:28;;;;;;;14.10;9.60;;;6.50;82.40;;;;;;5047771;28;20451;-41
2021/03/17 03:31:55;;;;;;;16.33;11.03;;;6.50;82.50;;;;;;5065217;28;20455;-40
2021/03/17 03:34:22;;;;;;;19.73;11.30;;;6.40;82.70;;;;;;5047634;28;20558;-41
2021/03/17 03:36:49;;;;;;;16.80;11.00;;;6.40;82.80;;;;;;5066997;28;20447;-41
2021/03/17 03:39:16;;;;;;;16.53;10.27;;;6.40;82.90;;;;;;5047392;28;20994;-41
2021/03/17 03:41:42;;;;;;;18.37;11.67;;;6.40;83.00;;;;;;5047275;28;20449;-41
2021/03/17 03:44:09;;;;;;;15.30;10.87;;;6.40;83.10;;;;;;5050186;28;20513;-41
2021/03/17 03:46:36;;;;;;;18.33;10.37;;;6.40;83.10;;;;;;5045483;28;20537;-40
2021/03/17 03:49:06;;;;;;;18.43;10.03;;;6.40;83.10;;;;;;5050366;28;20451;-40
2021/03/17 03:51:34;;;;;;;14.97;10.27;;;6.40;83.30;;;;;;5061821;28;20482;-41
2021/03/17 03:54:16;;;;;;;15.03;9.67;;;6.40;83.30;;;;;;5049149;28;20542;-41
2021/03/17 03:57:10;;;;;;;15.67;9.90;;;6.40;83.40;;;;;;5051279;28;20457;-41
2021/03/17 03:59:41;;;;;;;15.03;9.63;;;6.40;83.40;;;;;;5041507;28;20471;-41
2021/03/17 04:02:11;;;;;;;18.00;9.73;;;6.40;83.60;;;;;;5048692;28;20481;-41
2021/03/17 04:04:42;;;;;;;16.40;9.77;;;6.50;83.70;;;;;;5048436;28;21037;-41
2021/03/17 04:07:10;;;;;;;15.17;8.93;;;6.50;83.30;;;;;;5064574;28;20463;-41
2021/03/17 04:09:46;;;;;;;15.30;9.40;;;6.50;83.40;;;;;;5049353;28;20895;-41
2021/03/17 04:12:14;;;;;;;17.57;10.93;;;6.40;83.60;;;;;;5049356;28;21166;-41
2021/03/17 04:14:45;;;;;;;17.20;9.37;;;6.40;83.70;;;;;;5065056;28;20490;-41
2021/03/17 04:17:39;;;;;;;15.40;8.57;;;6.40;83.60;;;;;;5047261;28;20481;-40
2021/03/17 04:20:11;;;;;;;13.00;8.30;;;6.40;83.60;;;;;;5046364;28;20467;-41
2021/03/17 04:22:39;;;;;;;11.57;7.50;;;6.40;83.50;;;;;;5063823;28;20458;-41
2021/03/17 04:25:11;;;;;;;10.50;6.80;;;6.40;83.30;;;;;;5061927;28;20486;-41
2021/03/17 04:27:40;;;;;;;13.70;8.00;;;6.40;83.20;;;;;;5048942;28;20445;-41
2021/03/17 04:30:16;;;;;;;13.00;7.73;;;6.30;83.30;;;;;;5046920;28;20600;-40
2021/03/17 04:32:45;;;;;;;11.63;7.60;;;6.40;83.20;;;;;;5063388;28;20450;-41
2021/03/17 04:35:15;;;;;;;11.40;7.83;;;6.30;83.20;;;;;;5063179;28;20466;-41
2021/03/17 04:37:46;;;;;;;10.50;7.53;;;6.30;83.30;;;;;;5043212;28;20947;-41
2021/03/17 04:40:14;;;;;;;16.03;8.80;;;6.30;83.30;;;;;;5047964;28;20612;-41
2021/03/17 04:42:47;;;;;;;13.53;8.90;;;6.30;83.40;;;;;;5048856;28;20549;-41
2021/03/17 04:45:14;;;;;;;14.00;8.93;;;6.30;83.40;;;;;;5047096;28;20844;-41
2021/03/17 04:47:46;;;;;;;11.50;8.43;;;6.30;83.30;;;;;;5048621;28;20541;-40
2021/03/17 04:50:22;;;;;;;15.77;9.53;;;6.30;83.30;;;;;;5046710;28;20451;-41
2021/03/17 04:52:50;;;;;;;12.90;8.40;;;6.20;83.40;;;;;;5047486;28;20450;-41
2021/03/17 04:55:17;;;;;;;17.23;9.30;;;6.20;83.50;;;;;;5047282;28;20534;-41
2021/03/17 04:57:45;;;;;;;16.33;10.37;;;6.20;83.60;;;;;;5061865;28;20481;-41
2021/03/17 05:00:21;;;;;;;16.97;9.80;;;6.20;83.70;;;;;;5048268;28;20466;-41
2021/03/17 05:02:59;;;;;;;18.07;9.90;;;6.20;83.60;;;;;;5045959;28;20466;-41
2021/03/17 05:05:29;;;;;;;14.87;9.43;;;6.10;83.60;;;;;;5056080;28;20522;-41
2021/03/17 05:07:57;;;;;;;13.93;9.47;;;6.10;83.70;;;;;;5046784;28;20831;-41
2021/03/17 05:10:25;;;;;;;15.97;9.33;;;6.10;83.70;;;;;;5062914;28;20457;-41
2021/03/17 05:12:53;;;;;;;19.90;11.90;;;6.10;83.80;;;;;;5048902;28;20443;-41
2021/03/17 05:15:23;;;;;;;19.70;11.20;;;6.10;83.90;;;;;;5047109;28;20988;-41
2021/03/17 05:17:50;;;;;;;20.90;11.10;;;6.10;84.10;;;;;;5048151;28;20492;-41
2021/03/17 05:20:19;;;;;;;15.97;10.77;;;6.10;84.10;;;;;;5045006;28;20533;-41
2021/03/17 05:22:48;;;;;;;16.83;11.37;;;6.10;84.00;;;;;;5062673;28;20463;-41
2021/03/17 05:25:19;;;;;;;19.60;12.63;;;6.10;83.80;;;;;;5047231;28;20509;-41
2021/03/17 05:27:49;;;;;;;18.87;11.53;;;6.10;83.80;;;;;;5046502;28;20442;-41
2021/03/17 05:30:18;;;;;;;18.23;10.60;;;6.10;83.80;;;;;;5047870;28;20451;-41
2021/03/17 05:32:47;;;;;;;17.20;11.27;;;6.10;83.70;;;;;;5060174;28;20442;-41
2021/03/17 05:35:14;;;;;;;19.73;10.60;;;6.00;83.50;;;;;;5049171;28;20545;-41
2021/03/17 05:37:42;;;;;;;21.20;13.03;;;6.00;83.70;;;;;;5046888;28;20939;-42
2021/03/17 05:40:12;;;;;;;25.30;13.97;;;6.00;83.60;;;;;;5047608;28;20451;-41
2021/03/17 05:42:40;;;;;;;18.07;11.60;;;6.00;83.60;;;;;;5045945;28;20465;-41
2021/03/17 05:45:19;;;;;;;19.03;11.53;;;6.00;83.50;;;;;;5046794;28;20500;-41
2021/03/17 05:48:04;;;;;;;21.87;12.53;;;6.10;83.40;;;;;;5047600;28;20469;-41
2021/03/17 05:50:33;;;;;;;21.37;12.77;;;6.00;83.20;;;;;;5045828;28;20530;-41
2021/03/17 05:53:00;;;;;;;17.63;11.33;;;6.00;83.40;;;;;;5047870;28;20500;-41
2021/03/17 05:55:27;;;;;;;20.47;12.87;;;6.00;83.40;;;;;;5047941;28;20461;-41
2021/03/17 05:57:58;;;;;;;22.60;12.20;;;5.90;83.50;;;;;;5044596;28;20465;-41
2021/03/17 06:00:24;;;;;;;17.60;11.60;;;6.00;83.40;;;;;;5062454;28;20463;-41
2021/03/17 06:02:52;;;;;;;19.20;12.30;;;6.10;83.30;;;;;;5045758;28;20528;-40
2021/03/17 06:05:21;;;;;;;18.03;11.87;;;6.10;83.30;;;;;;5060674;28;20486;-41
2021/03/17 06:08:04;;;;;;;18.43;11.10;;;6.10;83.30;;;;;;5047553;28;20489;-41
2021/03/17 06:10:33;;;;;;;18.10;12.10;;;6.00;83.50;;;;;;5045095;28;20954;-40
2021/03/17 06:13:13;;;;;;;18.60;12.10;;;6.10;83.30;;;;;;5046774;28;20962;-41
2021/03/17 06:15:46;;;;;;;21.13;11.93;;;6.00;83.10;;;;;;5043695;28;20545;-41
2021/03/17 06:18:36;;;;;;;18.10;11.20;;;6.00;83.30;;;;;;5045949;28;20465;-41
2021/03/17 06:21:04;;;;;;;17.60;10.40;;;6.00;83.20;;;;;;5046711;28;20512;-41
2021/03/17 06:23:33;;;;;;;19.03;10.33;;;6.10;83.10;;;;;;5047279;28;20486;-41
2021/03/17 06:26:03;;;;;;;18.37;10.10;;;6.10;82.70;;;;;;5047108;28;21035;-40
2021/03/17 06:28:30;;;;;;;16.30;10.97;;;6.10;82.70;;;;;;5043964;28;20545;-41
2021/03/17 06:30:57;;;;;;;19.97;9.97;;;6.10;82.60;;;;;;5047774;28;20446;-41
2021/03/17 06:33:24;;;;;;;18.70;12.03;;;6.20;82.40;;;;;;5051153;28;20461;-41
2021/03/17 06:36:11;;;;;;;15.83;9.40;;;6.20;82.40;;;;;;5051131;28;20963;-41
2021/03/17 06:38:38;;;;;;;16.20;9.97;;;6.30;82.10;;;;;;5050576;28;20465;-41
2021/03/17 06:41:05;;;;;;;17.33;9.07;;;6.30;81.70;;;;;;5047502;28;20462;-41
2021/03/17 06:43:45;;;;;;;16.70;9.67;;;6.30;81.50;;;;;;5062587;28;20908;-42
2021/03/17 06:46:17;;;;;;;17.30;9.10;;;6.30;81.40;;;;;;5047836;28;20494;-41
2021/03/17 06:49:03;;;;;;;14.80;9.00;;;6.40;81.40;;;;;;5049621;28;20458;-41
2021/03/17 06:51:31;;;;;;;13.30;9.57;;;6.30;81.50;;;;;;5049821;28;20480;-41
2021/03/17 06:54:03;;;;;;;19.23;10.47;;;6.40;81.30;;;;;;5048199;28;20565;-42
2021/03/17 06:56:33;;;;;;;16.47;9.80;;;6.40;81.10;;;;;;5050258;28;20451;-41
2021/03/17 06:59:01;;;;;;;16.00;10.40;;;6.30;81.30;;;;;;5053142;28;20476;-41
2021/03/17 07:01:36;;;;;;;17.27;10.33;;;6.40;81.20;;;;;;5064507;28;20486;-41
2021/03/17 07:04:11;;;;;;;16.80;10.20;;;6.40;81.10;;;;;;5048294;28;20454;-41
2021/03/17 07:06:42;;;;;;;14.80;9.40;;;6.40;81.10;;;;;;5049918;28;20482;-41
2021/03/17 07:09:16;;;;;;;15.00;9.23;;;6.40;81.20;;;;;;5049751;28;20807;-41
2021/03/17 07:11:46;;;;;;;15.47;10.33;;;6.50;81.20;;;;;;5048792;28;20510;-41
2021/03/17 07:14:13;;;;;;;17.20;9.57;;;6.40;81.40;;;;;;5050233;28;20509;-41
2021/03/17 07:16:44;;;;;;;13.60;9.00;;;6.50;81.30;;;;;;5048003;28;20480;-41
2021/03/17 07:19:34;;;;;;;15.87;9.50;;;6.50;81.60;;;;;;5046561;28;20470;-40
2021/03/17 07:22:06;;;;;;;21.60;10.93;;;6.40;81.90;;;;;;5045901;28;20485;-41
2021/03/17 07:24:33;;;;;;;20.23;10.97;;;6.40;81.90;;;;;;5048326;28;21406;-41
2021/03/17 07:27:19;;;;;;;15.67;10.43;;;6.40;81.90;;;;;;5065142;28;20446;-41
2021/03/17 07:30:05;;;;;;;17.00;10.33;;;6.40;82.00;;;;;;5048490;28;20552;-40
2021/03/17 07:32:55;;;;;;;15.00;9.47;;;6.40;82.70;;;;;;5047679;28;20454;-41
2021/03/17 07:35:30;;;;;;;19.30;11.07;;;6.40;82.50;;;;;;5049067;28;20464;-41
2021/03/17 07:38:10;;;;;;;13.83;9.37;;;6.50;82.50;;;;;;5048809;28;20458;-41
2021/03/17 07:40:39;;;;;;;21.20;10.20;;;6.50;82.50;;;;;;5049878;28;20917;-40
2021/03/17 07:43:08;;;;;;;20.50;11.00;;;6.40;82.20;;;;;;5046897;28;20463;-41
2021/03/17 07:45:36;;;;;;;17.37;10.70;;;6.40;82.50;;;;;;5049098;28;20491;-41
2021/03/17 07:48:08;;;;;;;17.27;11.30;;;6.40;82.60;;;;;;5047652;28;20474;-41
2021/03/17 07:50:37;;;;;;;15.53;10.43;;;6.50;82.60;;;;;;5047669;28;20546;-41
2021/03/17 07:53:10;;;;;;;17.30;10.60;;;6.50;82.60;;;;;;5043160;28;20537;-41
2021/03/17 07:55:45;;;;;;;20.07;11.60;;;6.50;82.50;;;;;;5047780;28;20489;-41
2021/03/17 07:58:14;;;;;;;16.03;10.57;;;6.60;82.40;;;;;;5055912;28;20989;-41
2021/03/17 08:00:44;;;;;;;14.90;9.90;;;6.60;82.20;;;;;;5045617;28;20479;-41
2021/03/17 08:03:13;;;;;;;17.47;9.93;;;6.60;82.10;;;;;;5062892;28;20457;-41
2021/03/17 08:05:41;;;;;;;18.33;10.37;;;6.70;82.00;;;;;;5048513;28;20486;-41
2021/03/17 08:08:10;;;;;;;21.50;10.40;;;6.60;82.10;;;;;;5046485;28;20462;-41
2021/03/17 08:10:42;;;;;;;17.90;10.60;;;6.60;82.30;;;;;;5049809;28;20545;-40
2021/03/17 08:13:11;;;;;;;17.30;9.70;;;6.70;82.50;;;;;;5060958;28;20457;-41
2021/03/17 08:15:38;;;;;;;16.87;10.90;;;6.70;82.50;;;;;;5046251;28;20486;-41
2021/03/17 08:18:31;;;;;;;17.30;10.70;;;6.70;82.50;;;;;;5046987;28;20495;-41
2021/03/17 08:21:02;;;;;;;21.80;10.47;;;6.80;82.50;;;;;;5044298;28;20865;-41
2021/03/17 08:23:50;;;;;;;14.37;9.60;;;6.80;82.50;;;;;;5049308;28;20485;-40
2021/03/17 08:26:22;;;;;;;15.83;10.23;;;6.90;82.10;;;;;;5045944;28;20492;-41
2021/03/17 08:28:53;;;;;;;18.07;9.90;;;6.90;82.00;;;;;;5047290;28;20466;-40
2021/03/17 08:31:39;;;;;;;14.60;9.30;;;7.00;81.60;;;;;;5063935;28;20638;-41
2021/03/17 08:34:18;;;;;;;15.03;9.50;;;7.00;81.30;;;;;;5033831;28;20597;-41
2021/03/17 08:37:00;;;;;;;16.40;10.07;;;6.90;81.30;;;;;;5047086;28;20474;-41
2021/03/17 08:39:29;;;;;;;14.77;9.07;;;7.00;81.60;;;;;;5048495;28;20443;-41
2021/03/17 08:41:57;;;;;;;12.50;8.97;;;7.10;81.50;;;;;;5045832;28;20490;-41
2021/03/17 08:44:26;;;;;;;12.80;8.97;;;7.10;81.30;;;;;;5062279;28;20454;-41
2021/03/17 08:46:55;;;;;;;15.27;9.37;;;7.10;81.60;;;;;;5049455;28;20959;-41
2021/03/17 08:49:35;;;;;;;12.67;7.83;;;7.10;81.50;;;;;;5045980;28;20946;-41
2021/03/17 08:52:13;;;;;;;13.23;8.67;;;7.20;81.40;;;;;;5046463;28;20855;-41
2021/03/17 08:54:43;;;;;;;14.47;8.10;;;7.20;81.20;;;;;;5045587;28;20563;-41
2021/03/17 08:57:14;;;;;;;11.53;7.63;;;7.30;80.90;;;;;;5059448;28;20955;-41
2021/03/17 08:59:47;;;;;;;12.53;7.30;;;7.30;80.90;;;;;;5047210;28;20469;-41
2021/03/17 09:02:39;;;;;;;12.83;8.00;;;7.40;80.60;;;;;;5045648;28;20607;-41
2021/03/17 09:05:19;;;;;;;9.50;6.77;;;7.60;80.20;;;;;;5046579;28;20479;-41
2021/03/17 09:08:09;;;;;;;12.00;7.37;;;7.70;79.90;;;;;;5044996;28;20478;-41
2021/03/17 09:10:47;;;;;;;7.50;5.93;;;7.80;79.20;;;;;;5059994;28;20806;-41
2021/03/17 09:13:38;;;;;;;10.97;6.97;;;7.90;79.00;;;;;;5046786;28;20462;-41
2021/03/17 09:16:04;;;;;;;8.83;6.10;;;8.00;78.10;;;;;;5044976;28;20548;-41
2021/03/17 09:18:31;;;;;;;9.97;6.93;;;8.10;78.00;;;;;;5046487;28;20867;-41
2021/03/17 09:20:58;;;;;;;10.13;6.73;;;8.20;77.20;;;;;;5047505;28;20494;-42
2021/03/17 09:23:38;;;;;;;9.63;7.50;;;8.20;78.00;;;;;;5047360;28;20465;-42
2021/03/17 09:26:06;;;;;;;8.00;6.10;;;8.30;77.10;;;;;;5046061;28;20951;-42
2021/03/17 09:28:35;;;;;;;11.20;7.40;;;8.40;77.10;;;;;;5046320;28;20451;-41
2021/03/17 09:31:03;;;;;;;9.27;7.30;;;8.40;76.80;;;;;;5046455;28;20454;-42
2021/03/17 09:33:34;;;;;;;10.87;7.40;;;8.40;76.50;;;;;;5043408;28;20457;-42
2021/03/17 09:36:11;;;;;;;11.67;7.40;;;8.40;76.20;;;;;;5044302;28;20462;-42
2021/03/17 09:38:47;;;;;;;11.33;7.93;;;8.40;76.90;;;;;;5029863;28;20542;-42
2021/03/17 09:41:25;;;;;;;13.90;6.70;;;8.40;77.10;;;;;;5047254;28;20874;-41
2021/03/17 09:43:59;;;;;;;9.10;6.63;;;8.40;77.50;;;;;;5060087;28;20465;-41
2021/03/17 09:46:33;;;;;;;9.57;6.80;;;8.60;77.80;;;;;;5045293;28;21064;-41
2021/03/17 09:49:04;;;;;;;6.77;5.10;;;8.90;77.10;;;;;;5044282;28;20658;-42
2021/03/17 09:51:33;;;;;;;6.30;4.60;;;9.10;75.00;;;;;;5046556;28;20454;-41
2021/03/17 09:54:03;;;;;;;8.83;5.50;;;9.40;73.90;;;;;;5043259;28;20586;-42
2021/03/17 09:56:48;;;;;;;9.93;6.20;;;9.70;72.90;;;;;;5045685;28;20455;-42
2021/03/17 09:59:16;;;;;;;8.93;6.43;;;9.90;73.40;;;;;;5047213;28;20470;-42
2021/03/17 10:02:06;;;;;;;6.77;5.20;;;10.30;72.80;;;;;;5043694;28;20902;-42
2021/03/17 10:04:45;;;;;;;7.53;5.10;;;10.70;72.30;;;;;;5040484;28;20487;-42
2021/03/17 10:07:34;;;;;;;7.00;5.07;;;10.90;70.20;;;;;;5044385;28;20962;-42
2021/03/17 10:10:03;;;;;;;8.60;6.53;;;10.90;69.40;;;;;;5046299;28;20534;-42
2021/03/17 10:12:31;;;;;;;5.67;5.03;;;10.70;69.60;;;;;;5047810;28;20532;-42
2021/03/17 10:15:08;;;;;;;6.10;4.77;;;10.50;69.80;;;;;;5063343;28;20852;-42
2021/03/17 10:17:35;;;;;;;7.97;5.53;;;10.30;69.80;;;;;;5047967;28;20497;-42
2021/03/17 10:20:21;;;;;;;7.53;5.63;;;10.10;70.10;;;;;;5048324;28;20450;-42
2021/03/17 10:22:50;;;;;;;5.83;4.50;;;9.90;70.40;;;;;;5042073;28;20836;-42
2021/03/17 10:25:22;;;;;;;4.33;3.13;;;9.70;70.60;;;;;;5045714;28;21026;-42
2021/03/17 10:28:08;;;;;;;2.77;2.43;;;9.50;70.50;;;;;;5061838;28;20451;-42
2021/03/17 10:30:39;;;;;;;3.57;1.77;;;9.30;71.00;;;;;;5045809;28;20529;-42
2021/03/17 10:33:14;;;;;;;2.57;1.87;;;9.10;71.90;;;;;;5049318;28;20496;-42
2021/03/17 10:35:42;;;;;;;2.10;1.90;;;9.00;72.90;;;;;;5047741;28;20822;-42
2021/03/17 10:38:09;;;;;;;1.87;1.53;;;9.20;75.00;;;;;;5047495;28;20870;-42
2021/03/17 10:40:37;;;;;;;3.63;2.60;;;9.60;72.90;;;;;;5047126;28;20573;-42
2021/03/17 10:43:14;;;;;;;2.80;2.30;;;9.80;71.30;;;;;;5048819;28;20955;-42
2021/03/17 10:45:50;;;;;;;4.20;2.77;;;9.70;70.10;;;;;;5041947;28;20612;-42
2021/03/17 10:48:24;;;;;;;3.60;3.00;;;9.60;70.80;;;;;;5045795;28;20450;-42
2021/03/17 10:50:52;;;;;;;2.90;2.60;;;9.50;70.90;;;;;;5040502;28;20512;-42
2021/03/17 10:53:25;;;;;;;3.90;2.50;;;9.50;72.00;;;;;;5043977;28;20871;-42
2021/03/17 10:55:54;;;;;;;4.40;3.33;;;9.50;72.20;;;;;;5043662;28;20446;-42
2021/03/17 10:58:26;;;;;;;3.80;3.10;;;9.50;72.90;;;;;;5039403;28;20950;-42
2021/03/17 11:00:56;;;;;;;4.00;3.60;;;9.60;73.30;;;;;;5048575;28;20469;-42
2021/03/17 11:03:31;;;;;;;4.33;3.93;;;9.70;73.20;;;;;;5047324;28;20447;-42
2021/03/17 11:06:15;;;;;;;2.93;2.47;;;9.90;73.00;;;;;;5048415;28;20477;-42
2021/03/17 11:08:46;;;;;;;2.00;1.63;;;10.00;71.90;;;;;;5049097;28;20446;-42
2021/03/17 11:11:13;;;;;;;3.47;3.17;;;9.90;71.30;;;;;;5045260;28;20794;-42
2021/03/17 11:13:48;;;;;;;2.63;1.60;;;9.80;71.10;;;;;;5045357;28;20462;-42
2021/03/17 11:16:31;;;;;;;3.23;2.13;;;9.50;71.00;;;;;;5043931;28;20473;-42
2021/03/17 11:18:59;;;;;;;2.90;1.90;;;9.20;71.20;;;;;;5051525;28;20462;-42
2021/03/17 11:21:28;;;;;;;2.27;1.87;;;8.90;72.40;;;;;;5050634;28;20895;-42
2021/03/17 11:23:58;;;;;;;2.50;1.87;;;8.70;73.40;;;;;;5049038;28;20851;-41
2021/03/17 11:26:46;;;;;;;2.40;2.17;;;8.60;74.20;;;;;;5043993;28;21071;-42
2021/03/17 11:29:15;;;;;;;2.63;2.10;;;8.50;74.90;;;;;;5049991;28;20715;-41
2021/03/17 11:31:42;;;;;;;3.00;1.97;;;8.30;75.30;;;;;;5051321;28;20464;-42
2021/03/17 11:34:11;;;;;;;1.60;1.50;;;8.20;75.40;;;;;;5061037;28;20458;-41
2021/03/17 11:36:39;;;;;;;4.13;2.20;;;8.20;76.10;;;;;;5048469;28;20931;-42
2021/03/17 11:39:09;;;;;;;2.40;1.87;;;8.20;76.50;;;;;;5049337;28;20458;-42
2021/03/17 11:41:37;;;;;;;2.90;2.00;;;8.20;76.90;;;;;;5046836;28;20459;-42
2021/03/17 11:44:03;;;;;;;2.37;2.17;;;8.20;76.80;;;;;;5049751;28;20483;-41
2021/03/17 11:46:30;;;;;;;3.80;2.20;;;8.20;76.80;;;;;;5050665;28;21075;-42
2021/03/17 11:48:57;;;;;;;3.37;2.20;;;8.20;77.10;;;;;;5048830;28;20461;-42
2021/03/17 11:51:24;;;;;;;3.27;2.77;;;8.30;77.20;;;;;;5050471;28;20455;-42
2021/03/17 11:53:51;;;;;;;3.20;2.47;;;8.30;76.70;;;;;;5048289;28;20510;-42
2021/03/17 11:56:18;;;;;;;3.10;2.47;;;8.40;76.60;;;;;;5048677;28;20977;-41
2021/03/17 11:58:48;;;;;;;5.93;5.33;;;8.40;77.00;;;;;;5047586;28;20885;-41
2021/03/17 12:01:15;;;;;;;9.90;7.67;;;8.50;77.10;;;;;;5046811;28;21000;-43
2021/03/17 12:03:47;;;;;;;8.87;6.80;;;8.60;75.80;;;;;;5045302;28;20471;-42
2021/03/17 12:06:13;;;;;;;6.73;5.60;;;8.60;75.80;;;;;;5047614;28;20486;-43
2021/03/17 12:08:39;;;;;;;6.53;4.23;;;8.60;74.70;;;;;;5049011;28;20454;-43
2021/03/17 12:11:19;;;;;;;5.70;5.20;;;8.60;74.30;;;;;;5063366;28;20450;-43
2021/03/17 12:13:46;;;;;;;4.93;3.93;;;8.70;73.90;;;;;;5048127;28;20459;-42
2021/03/17 12:16:14;;;;;;;6.57;4.17;;;8.70;73.50;;;;;;5047099;28;20482;-43
2021/03/17 12:18:45;;;;;;;7.90;4.03;;;8.70;73.30;;;;;;5049389;28;20958;-43
2021/03/17 12:21:13;;;;;;;6.17;4.40;;;8.70;73.50;;;;;;5045566;28;20459;-42
2021/03/17 12:23:40;;;;;;;4.90;3.00;;;8.80;73.70;;;;;;5044970;28;20862;-43
2021/03/17 12:26:07;;;;;;;9.73;4.23;;;8.90;73.50;;;;;;5063095;28;20672;-43
2021/03/17 12:28:33;;;;;;;6.70;5.20;;;9.00;73.20;;;;;;5048885;28;20486;-43
2021/03/17 12:31:00;;;;;;;6.03;3.90;;;9.10;72.90;;;;;;5053029;28;20446;-43
2021/03/17 12:33:27;;;;;;;5.60;3.40;;;9.30;72.40;;;;;;5049750;28;20445;-43
2021/03/17 12:35:53;;;;;;;3.50;2.43;;;9.30;72.10;;;;;;5044187;28;20477;-42
2021/03/17 12:38:20;;;;;;;2.53;2.30;;;9.40;71.70;;;;;;5047564;28;20464;-43
2021/03/17 12:40:47;;;;;;;4.77;3.80;;;9.60;71.00;;;;;;5050766;28;20549;-43
2021/03/17 12:43:13;;;;;;;3.40;2.43;;;9.70;70.90;;;;;;5048326;28;20542;-43
2021/03/17 12:45:43;;;;;;;2.73;2.50;;;9.80;70.40;;;;;;5048212;28;20482;-43
2021/03/17 12:48:10;;;;;;;9.73;3.60;;;9.80;69.80;;;;;;5064527;28;20508;-43
2021/03/17 12:50:37;;;;;;;3.10;2.60;;;9.80;70.00;;;;;;5045885;28;20574;-42
2021/03/17 12:53:03;;;;;;;4.70;2.80;;;9.70;69.70;;;;;;5048171;28;20455;-43
2021/03/17 12:55:30;;;;;;;5.90;2.97;;;9.60;69.70;;;;;;5047162;28;20498;-43
2021/03/17 12:57:57;;;;;;;3.03;2.50;;;9.60;69.80;;;;;;5047826;28;20466;-43
2021/03/17 13:00:24;;;;;;;5.20;3.27;;;9.50;69.50;;;;;;5061254;28;20966;-43
2021/03/17 13:02:52;;;;;;;7.43;2.93;;;9.50;69.70;;;;;;5046506;28;20457;-43
2021/03/17 13:05:22;;;;;;;4.17;3.17;;;9.40;69.90;;;;;;5045812;28;20495;-43
2021/03/17 13:07:50;;;;;;;8.10;2.93;;;9.30;70.20;;;;;;5048462;28;20725;-43